sensor_id;sensor_type;location;lat;lon;timestamp;P1;durP1;ratioP1;P2;durP2;ratioP2
70303;SDS011;57712;48.752;11.348;2022-08-19T00:01:58;32.03;;;24.48;;
70303;SDS011;57712;48.752;11.348;2022-08-19T00:04:27;31.75;;;23.20;;
70303;SDS011;57712;48.752;11.348;2022-08-19T00:06:56;32.60;;;23.50;;
70303;SDS011;57712;48.752;11.348;2022-08-19T00:09:24;30.17;;;22.10;;
70303;SDS011;57712;48.752;11.348;2022-08-19T00:11:51;32.08;;;22.85;;
70303;SDS011;57712;48.752;11.348;2022-08-19T00:14:19;28.02;;;21.58;;
70303;SDS011;57712;48.752;11.348;2022-08-19T00:16:47;30.40;;;23.00;;
70303;SDS011;57712;48.752;11.348;2022-08-19T00:19:15;29.30;;;22.10;;
70303;SDS011;57712;48.752;11.348;2022-08-19T00:21:42;29.45;;;22.23;;
70303;SDS011;57712;48.752;11.348;2022-08-19T00:24:10;28.95;;;21.13;;
70303;SDS011;57712;48.752;11.348;2022-08-19T00:26:38;28.98;;;21.40;;
70303;SDS011;57712;48.752;11.348;2022-08-19T00:29:05;31.30;;;23.27;;
70303;SDS011;57712;48.752;11.348;2022-08-19T00:31:33;31.00;;;21.90;;
70303;SDS011;57712;48.752;11.348;2022-08-19T00:34:00;31.58;;;22.90;;
70303;SDS011;57712;48.752;11.348;2022-08-19T00:36:26;31.90;;;23.63;;
70303;SDS011;57712;48.752;11.348;2022-08-19T00:38:54;33.35;;;24.23;;
70303;SDS011;57712;48.752;11.348;2022-08-19T00:41:21;33.25;;;25.15;;
70303;SDS011;57712;48.752;11.348;2022-08-19T00:43:57;37.57;;;27.20;;
70303;SDS011;57712;48.752;11.348;2022-08-19T00:46:29;37.30;;;26.33;;
70303;SDS011;57712;48.752;11.348;2022-08-19T00:48:56;38.28;;;26.55;;
70303;SDS011;57712;48.752;11.348;2022-08-19T00:51:24;37.70;;;26.08;;
70303;SDS011;57712;48.752;11.348;2022-08-19T00:53:54;39.33;;;26.90;;
70303;SDS011;57712;48.752;11.348;2022-08-19T00:56:23;38.97;;;27.40;;
70303;SDS011;57712;48.752;11.348;2022-08-19T00:58:50;37.20;;;26.38;;
70303;SDS011;57712;48.752;11.348;2022-08-19T01:01:16;37.67;;;27.05;;
70303;SDS011;57712;48.752;11.348;2022-08-19T01:03:43;38.97;;;26.02;;
70303;SDS011;57712;48.752;11.348;2022-08-19T01:06:23;39.05;;;26.13;;
70303;SDS011;57712;48.752;11.348;2022-08-19T01:08:50;35.10;;;25.67;;
70303;SDS011;57712;48.752;11.348;2022-08-19T01:11:17;36.97;;;26.60;;
70303;SDS011;57712;48.752;11.348;2022-08-19T01:13:43;37.03;;;25.75;;
70303;SDS011;57712;48.752;11.348;2022-08-19T01:16:15;38.20;;;26.63;;
70303;SDS011;57712;48.752;11.348;2022-08-19T01:18:44;36.47;;;26.75;;
70303;SDS011;57712;48.752;11.348;2022-08-19T01:21:18;35.07;;;25.87;;
70303;SDS011;57712;48.752;11.348;2022-08-19T01:23:52;39.08;;;26.45;;
70303;SDS011;57712;48.752;11.348;2022-08-19T01:26:20;34.78;;;24.67;;
70303;SDS011;57712;48.752;11.348;2022-08-19T01:28:51;37.63;;;26.60;;
70303;SDS011;57712;48.752;11.348;2022-08-19T01:31:25;35.70;;;24.67;;
70303;SDS011;57712;48.752;11.348;2022-08-19T01:33:58;36.43;;;24.73;;
70303;SDS011;57712;48.752;11.348;2022-08-19T01:36:28;35.67;;;24.50;;
70303;SDS011;57712;48.752;11.348;2022-08-19T01:38:55;34.58;;;24.83;;
70303;SDS011;57712;48.752;11.348;2022-08-19T01:41:22;32.58;;;23.13;;
70303;SDS011;57712;48.752;11.348;2022-08-19T01:43:50;33.83;;;23.80;;
70303;SDS011;57712;48.752;11.348;2022-08-19T01:46:38;35.20;;;24.60;;
70303;SDS011;57712;48.752;11.348;2022-08-19T01:49:05;36.03;;;25.25;;
70303;SDS011;57712;48.752;11.348;2022-08-19T01:51:34;35.70;;;25.17;;
70303;SDS011;57712;48.752;11.348;2022-08-19T01:54:05;36.35;;;25.42;;
70303;SDS011;57712;48.752;11.348;2022-08-19T01:56:31;40.33;;;26.50;;
70303;SDS011;57712;48.752;11.348;2022-08-19T01:59:00;39.70;;;26.93;;
70303;SDS011;57712;48.752;11.348;2022-08-19T02:01:31;38.38;;;26.20;;
70303;SDS011;57712;48.752;11.348;2022-08-19T02:03:58;39.70;;;27.33;;
70303;SDS011;57712;48.752;11.348;2022-08-19T02:06:27;40.08;;;27.58;;
70303;SDS011;57712;48.752;11.348;2022-08-19T02:08:54;41.15;;;28.08;;
70303;SDS011;57712;48.752;11.348;2022-08-19T02:11:24;43.40;;;29.50;;
70303;SDS011;57712;48.752;11.348;2022-08-19T02:13:53;45.85;;;29.83;;
70303;SDS011;57712;48.752;11.348;2022-08-19T02:16:21;42.10;;;28.60;;
70303;SDS011;57712;48.752;11.348;2022-08-19T02:18:48;44.25;;;29.42;;
70303;SDS011;57712;48.752;11.348;2022-08-19T02:21:17;42.88;;;28.98;;
70303;SDS011;57712;48.752;11.348;2022-08-19T02:23:45;46.07;;;28.90;;
70303;SDS011;57712;48.752;11.348;2022-08-19T02:26:12;42.30;;;27.63;;
70303;SDS011;57712;48.752;11.348;2022-08-19T02:28:39;43.67;;;28.38;;
70303;SDS011;57712;48.752;11.348;2022-08-19T02:31:10;43.88;;;27.85;;
70303;SDS011;57712;48.752;11.348;2022-08-19T02:33:43;41.15;;;27.40;;
70303;SDS011;57712;48.752;11.348;2022-08-19T02:36:11;42.77;;;27.53;;
70303;SDS011;57712;48.752;11.348;2022-08-19T02:38:40;41.30;;;27.38;;
70303;SDS011;57712;48.752;11.348;2022-08-19T02:41:19;41.85;;;26.80;;
70303;SDS011;57712;48.752;11.348;2022-08-19T02:43:52;44.38;;;28.75;;
70303;SDS011;57712;48.752;11.348;2022-08-19T02:46:39;42.17;;;28.15;;
70303;SDS011;57712;48.752;11.348;2022-08-19T02:49:06;43.97;;;28.00;;
70303;SDS011;57712;48.752;11.348;2022-08-19T02:51:35;44.55;;;28.40;;
70303;SDS011;57712;48.752;11.348;2022-08-19T02:54:04;45.08;;;28.25;;
70303;SDS011;57712;48.752;11.348;2022-08-19T02:56:33;47.33;;;30.55;;
70303;SDS011;57712;48.752;11.348;2022-08-19T02:59:02;46.08;;;30.25;;
70303;SDS011;57712;48.752;11.348;2022-08-19T03:01:36;43.90;;;28.53;;
70303;SDS011;57712;48.752;11.348;2022-08-19T03:04:06;45.13;;;29.00;;
70303;SDS011;57712;48.752;11.348;2022-08-19T03:06:38;47.47;;;29.02;;
70303;SDS011;57712;48.752;11.348;2022-08-19T03:09:06;44.80;;;29.55;;
70303;SDS011;57712;48.752;11.348;2022-08-19T03:11:34;44.40;;;29.15;;
70303;SDS011;57712;48.752;11.348;2022-08-19T03:14:01;47.27;;;28.63;;
70303;SDS011;57712;48.752;11.348;2022-08-19T03:16:30;45.33;;;29.13;;
70303;SDS011;57712;48.752;11.348;2022-08-19T03:18:59;45.47;;;27.90;;
70303;SDS011;57712;48.752;11.348;2022-08-19T03:21:28;43.28;;;28.40;;
70303;SDS011;57712;48.752;11.348;2022-08-19T03:23:58;44.15;;;27.77;;
70303;SDS011;57712;48.752;11.348;2022-08-19T03:26:26;44.13;;;27.30;;
70303;SDS011;57712;48.752;11.348;2022-08-19T03:28:53;44.35;;;28.23;;
70303;SDS011;57712;48.752;11.348;2022-08-19T03:31:24;44.47;;;28.48;;
70303;SDS011;57712;48.752;11.348;2022-08-19T03:34:13;43.88;;;28.75;;
70303;SDS011;57712;48.752;11.348;2022-08-19T03:36:41;43.47;;;28.02;;
70303;SDS011;57712;48.752;11.348;2022-08-19T03:39:09;44.37;;;27.33;;
70303;SDS011;57712;48.752;11.348;2022-08-19T03:41:38;45.97;;;27.45;;
70303;SDS011;57712;48.752;11.348;2022-08-19T03:44:15;46.00;;;27.35;;
70303;SDS011;57712;48.752;11.348;2022-08-19T03:46:51;46.25;;;27.35;;
70303;SDS011;57712;48.752;11.348;2022-08-19T03:49:20;43.30;;;27.50;;
70303;SDS011;57712;48.752;11.348;2022-08-19T03:51:54;45.00;;;26.87;;
70303;SDS011;57712;48.752;11.348;2022-08-19T03:54:23;44.92;;;28.05;;
70303;SDS011;57712;48.752;11.348;2022-08-19T03:56:51;42.72;;;27.55;;
70303;SDS011;57712;48.752;11.348;2022-08-19T03:59:27;45.28;;;27.17;;
70303;SDS011;57712;48.752;11.348;2022-08-19T04:01:57;44.80;;;27.05;;
70303;SDS011;57712;48.752;11.348;2022-08-19T04:04:25;41.83;;;26.80;;
70303;SDS011;57712;48.752;11.348;2022-08-19T04:06:54;46.35;;;28.20;;
70303;SDS011;57712;48.752;11.348;2022-08-19T04:09:22;44.78;;;26.58;;
70303;SDS011;57712;48.752;11.348;2022-08-19T04:11:49;44.30;;;27.08;;
70303;SDS011;57712;48.752;11.348;2022-08-19T04:14:22;48.38;;;28.30;;
70303;SDS011;57712;48.752;11.348;2022-08-19T04:16:51;44.10;;;27.23;;
70303;SDS011;57712;48.752;11.348;2022-08-19T04:19:19;46.40;;;27.58;;
70303;SDS011;57712;48.752;11.348;2022-08-19T04:21:48;46.65;;;29.10;;
70303;SDS011;57712;48.752;11.348;2022-08-19T04:24:17;45.33;;;27.77;;
70303;SDS011;57712;48.752;11.348;2022-08-19T04:26:45;44.20;;;27.08;;
70303;SDS011;57712;48.752;11.348;2022-08-19T04:29:15;47.13;;;28.70;;
70303;SDS011;57712;48.752;11.348;2022-08-19T04:31:45;43.70;;;27.52;;
70303;SDS011;57712;48.752;11.348;2022-08-19T04:34:13;47.58;;;28.50;;
70303;SDS011;57712;48.752;11.348;2022-08-19T04:36:41;44.03;;;28.48;;
70303;SDS011;57712;48.752;11.348;2022-08-19T04:39:12;44.58;;;27.95;;
70303;SDS011;57712;48.752;11.348;2022-08-19T04:41:42;45.60;;;28.33;;
70303;SDS011;57712;48.752;11.348;2022-08-19T04:44:30;43.90;;;27.05;;
70303;SDS011;57712;48.752;11.348;2022-08-19T04:47:00;44.53;;;27.30;;
70303;SDS011;57712;48.752;11.348;2022-08-19T04:49:36;45.55;;;27.83;;
70303;SDS011;57712;48.752;11.348;2022-08-19T04:52:03;43.13;;;27.50;;
70303;SDS011;57712;48.752;11.348;2022-08-19T04:54:29;46.03;;;28.33;;
70303;SDS011;57712;48.752;11.348;2022-08-19T04:57:05;45.65;;;26.88;;
70303;SDS011;57712;48.752;11.348;2022-08-19T04:59:35;44.17;;;28.27;;
70303;SDS011;57712;48.752;11.348;2022-08-19T05:02:03;44.17;;;26.98;;
70303;SDS011;57712;48.752;11.348;2022-08-19T05:04:30;45.80;;;29.02;;
70303;SDS011;57712;48.752;11.348;2022-08-19T05:06:58;47.70;;;28.47;;
70303;SDS011;57712;48.752;11.348;2022-08-19T05:09:27;41.72;;;26.80;;
70303;SDS011;57712;48.752;11.348;2022-08-19T05:12:14;39.65;;;26.58;;
70303;SDS011;57712;48.752;11.348;2022-08-19T05:14:41;41.35;;;26.38;;
70303;SDS011;57712;48.752;11.348;2022-08-19T05:17:08;44.88;;;27.67;;
70303;SDS011;57712;48.752;11.348;2022-08-19T05:19:55;43.07;;;27.40;;
70303;SDS011;57712;48.752;11.348;2022-08-19T05:22:41;39.95;;;25.90;;
70303;SDS011;57712;48.752;11.348;2022-08-19T05:25:11;38.42;;;25.83;;
70303;SDS011;57712;48.752;11.348;2022-08-19T05:27:41;39.58;;;26.17;;
70303;SDS011;57712;48.752;11.348;2022-08-19T05:30:09;41.28;;;26.13;;
70303;SDS011;57712;48.752;11.348;2022-08-19T05:32:37;38.70;;;26.07;;
70303;SDS011;57712;48.752;11.348;2022-08-19T05:35:04;45.22;;;26.88;;
70303;SDS011;57712;48.752;11.348;2022-08-19T05:37:31;41.35;;;27.98;;
70303;SDS011;57712;48.752;11.348;2022-08-19T05:39:58;45.20;;;27.80;;
70303;SDS011;57712;48.752;11.348;2022-08-19T05:42:25;42.13;;;27.10;;
70303;SDS011;57712;48.752;11.348;2022-08-19T05:44:52;38.63;;;25.90;;
70303;SDS011;57712;48.752;11.348;2022-08-19T05:47:19;42.58;;;26.27;;
70303;SDS011;57712;48.752;11.348;2022-08-19T05:49:47;38.10;;;25.70;;
70303;SDS011;57712;48.752;11.348;2022-08-19T05:52:16;41.63;;;26.33;;
70303;SDS011;57712;48.752;11.348;2022-08-19T05:54:44;40.45;;;26.48;;
70303;SDS011;57712;48.752;11.348;2022-08-19T05:57:17;42.10;;;26.20;;
70303;SDS011;57712;48.752;11.348;2022-08-19T05:59:44;42.45;;;26.55;;
70303;SDS011;57712;48.752;11.348;2022-08-19T06:02:24;38.13;;;25.13;;
70303;SDS011;57712;48.752;11.348;2022-08-19T06:04:51;40.70;;;26.15;;
70303;SDS011;57712;48.752;11.348;2022-08-19T06:07:18;40.17;;;26.77;;
70303;SDS011;57712;48.752;11.348;2022-08-19T06:09:45;37.70;;;24.33;;
70303;SDS011;57712;48.752;11.348;2022-08-19T06:12:26;39.35;;;26.02;;
70303;SDS011;57712;48.752;11.348;2022-08-19T06:15:04;40.42;;;26.85;;
70303;SDS011;57712;48.752;11.348;2022-08-19T06:17:35;37.33;;;24.55;;
70303;SDS011;57712;48.752;11.348;2022-08-19T06:20:06;38.53;;;26.48;;
70303;SDS011;57712;48.752;11.348;2022-08-19T06:22:39;38.50;;;26.53;;
70303;SDS011;57712;48.752;11.348;2022-08-19T06:25:11;36.90;;;23.75;;
70303;SDS011;57712;48.752;11.348;2022-08-19T06:27:39;37.20;;;24.23;;
70303;SDS011;57712;48.752;11.348;2022-08-19T06:30:25;38.50;;;26.20;;
70303;SDS011;57712;48.752;11.348;2022-08-19T06:32:52;37.03;;;24.33;;
70303;SDS011;57712;48.752;11.348;2022-08-19T06:35:19;37.87;;;25.17;;
70303;SDS011;57712;48.752;11.348;2022-08-19T06:37:46;37.60;;;25.38;;
70303;SDS011;57712;48.752;11.348;2022-08-19T06:40:14;35.90;;;24.50;;
70303;SDS011;57712;48.752;11.348;2022-08-19T06:42:41;34.45;;;24.48;;
70303;SDS011;57712;48.752;11.348;2022-08-19T06:45:20;35.22;;;24.88;;
70303;SDS011;57712;48.752;11.348;2022-08-19T06:47:59;37.20;;;25.37;;
70303;SDS011;57712;48.752;11.348;2022-08-19T06:50:26;36.45;;;24.90;;
70303;SDS011;57712;48.752;11.348;2022-08-19T06:52:53;36.85;;;25.65;;
70303;SDS011;57712;48.752;11.348;2022-08-19T06:55:20;42.47;;;25.95;;
70303;SDS011;57712;48.752;11.348;2022-08-19T06:57:47;37.22;;;25.63;;
70303;SDS011;57712;48.752;11.348;2022-08-19T07:00:14;36.13;;;23.97;;
70303;SDS011;57712;48.752;11.348;2022-08-19T07:02:42;37.05;;;24.92;;
70303;SDS011;57712;48.752;11.348;2022-08-19T07:05:18;36.40;;;24.33;;
70303;SDS011;57712;48.752;11.348;2022-08-19T07:07:45;33.42;;;24.30;;
70303;SDS011;57712;48.752;11.348;2022-08-19T07:10:12;34.67;;;24.40;;
70303;SDS011;57712;48.752;11.348;2022-08-19T07:12:39;35.70;;;25.70;;
70303;SDS011;57712;48.752;11.348;2022-08-19T07:15:07;37.20;;;26.23;;
70303;SDS011;57712;48.752;11.348;2022-08-19T07:17:36;34.38;;;24.75;;
70303;SDS011;57712;48.752;11.348;2022-08-19T07:20:07;34.72;;;25.50;;
70303;SDS011;57712;48.752;11.348;2022-08-19T07:22:38;34.78;;;24.70;;
70303;SDS011;57712;48.752;11.348;2022-08-19T07:25:06;34.97;;;26.07;;
70303;SDS011;57712;48.752;11.348;2022-08-19T07:27:35;34.55;;;24.70;;
70303;SDS011;57712;48.752;11.348;2022-08-19T07:30:05;37.45;;;24.85;;
70303;SDS011;57712;48.752;11.348;2022-08-19T07:32:36;37.10;;;26.40;;
70303;SDS011;57712;48.752;11.348;2022-08-19T07:35:03;37.55;;;26.10;;
70303;SDS011;57712;48.752;11.348;2022-08-19T07:37:32;36.07;;;25.73;;
70303;SDS011;57712;48.752;11.348;2022-08-19T07:39:59;34.58;;;25.25;;
70303;SDS011;57712;48.752;11.348;2022-08-19T07:42:26;33.55;;;25.15;;
70303;SDS011;57712;48.752;11.348;2022-08-19T07:44:55;35.53;;;26.00;;
70303;SDS011;57712;48.752;11.348;2022-08-19T07:47:22;34.05;;;25.88;;
70303;SDS011;57712;48.752;11.348;2022-08-19T07:50:10;34.67;;;25.77;;
70303;SDS011;57712;48.752;11.348;2022-08-19T07:52:38;34.55;;;25.73;;
70303;SDS011;57712;48.752;11.348;2022-08-19T07:55:06;37.22;;;26.88;;
70303;SDS011;57712;48.752;11.348;2022-08-19T07:57:55;35.47;;;25.45;;
70303;SDS011;57712;48.752;11.348;2022-08-19T08:00:21;37.03;;;26.35;;
70303;SDS011;57712;48.752;11.348;2022-08-19T08:02:49;41.67;;;28.67;;
70303;SDS011;57712;48.752;11.348;2022-08-19T08:05:20;42.72;;;29.65;;
70303;SDS011;57712;48.752;11.348;2022-08-19T08:08:08;42.28;;;29.23;;
70303;SDS011;57712;48.752;11.348;2022-08-19T08:10:54;42.08;;;28.75;;
70303;SDS011;57712;48.752;11.348;2022-08-19T08:13:22;44.30;;;29.80;;
70303;SDS011;57712;48.752;11.348;2022-08-19T08:15:51;46.23;;;29.97;;
70303;SDS011;57712;48.752;11.348;2022-08-19T08:18:19;44.35;;;28.85;;
70303;SDS011;57712;48.752;11.348;2022-08-19T08:20:46;42.20;;;27.92;;
70303;SDS011;57712;48.752;11.348;2022-08-19T08:23:13;43.50;;;28.55;;
70303;SDS011;57712;48.752;11.348;2022-08-19T08:25:48;44.97;;;29.52;;
70303;SDS011;57712;48.752;11.348;2022-08-19T08:28:16;45.23;;;28.30;;
70303;SDS011;57712;48.752;11.348;2022-08-19T08:30:44;44.58;;;29.27;;
70303;SDS011;57712;48.752;11.348;2022-08-19T08:33:17;43.58;;;28.58;;
70303;SDS011;57712;48.752;11.348;2022-08-19T08:35:59;43.33;;;28.05;;
70303;SDS011;57712;48.752;11.348;2022-08-19T08:38:28;43.30;;;29.50;;
70303;SDS011;57712;48.752;11.348;2022-08-19T08:41:07;42.73;;;28.47;;
70303;SDS011;57712;48.752;11.348;2022-08-19T08:43:45;39.08;;;26.90;;
70303;SDS011;57712;48.752;11.348;2022-08-19T08:46:19;42.63;;;28.33;;
70303;SDS011;57712;48.752;11.348;2022-08-19T08:51:43;42.10;;;27.83;;
70303;SDS011;57712;48.752;11.348;2022-08-19T08:54:24;41.73;;;27.20;;
70303;SDS011;57712;48.752;11.348;2022-08-19T08:57:00;38.53;;;27.42;;
70303;SDS011;57712;48.752;11.348;2022-08-19T08:59:30;40.58;;;27.73;;
70303;SDS011;57712;48.752;11.348;2022-08-19T09:02:00;39.45;;;25.50;;
70303;SDS011;57712;48.752;11.348;2022-08-19T09:04:27;39.30;;;26.92;;
70303;SDS011;57712;48.752;11.348;2022-08-19T09:10:07;39.25;;;26.50;;
70303;SDS011;57712;48.752;11.348;2022-08-19T09:15:51;32.40;;;23.30;;
70303;SDS011;57712;48.752;11.348;2022-08-19T09:18:23;34.40;;;23.40;;
70303;SDS011;57712;48.752;11.348;2022-08-19T09:20:54;30.40;;;22.07;;
70303;SDS011;57712;48.752;11.348;2022-08-19T09:23:22;31.98;;;23.45;;
70303;SDS011;57712;48.752;11.348;2022-08-19T09:25:52;33.70;;;25.00;;
70303;SDS011;57712;48.752;11.348;2022-08-19T09:28:18;35.17;;;24.63;;
70303;SDS011;57712;48.752;11.348;2022-08-19T09:30:50;37.58;;;25.38;;
70303;SDS011;57712;48.752;11.348;2022-08-19T09:33:18;38.03;;;25.60;;
70303;SDS011;57712;48.752;11.348;2022-08-19T09:35:45;38.20;;;25.35;;
70303;SDS011;57712;48.752;11.348;2022-08-19T09:38:18;34.95;;;23.35;;
70303;SDS011;57712;48.752;11.348;2022-08-19T09:40:45;32.97;;;23.25;;
70303;SDS011;57712;48.752;11.348;2022-08-19T09:43:11;34.03;;;23.80;;
70303;SDS011;57712;48.752;11.348;2022-08-19T09:45:39;33.67;;;22.87;;
70303;SDS011;57712;48.752;11.348;2022-08-19T09:48:06;31.65;;;22.13;;
70303;SDS011;57712;48.752;11.348;2022-08-19T09:50:34;32.50;;;23.15;;
70303;SDS011;57712;48.752;11.348;2022-08-19T09:53:17;32.30;;;22.90;;
70303;SDS011;57712;48.752;11.348;2022-08-19T09:55:44;31.52;;;22.15;;
70303;SDS011;57712;48.752;11.348;2022-08-19T09:58:11;29.30;;;21.33;;
70303;SDS011;57712;48.752;11.348;2022-08-19T10:00:37;28.98;;;21.48;;
70303;SDS011;57712;48.752;11.348;2022-08-19T10:03:04;31.73;;;20.42;;
70303;SDS011;57712;48.752;11.348;2022-08-19T10:05:32;32.30;;;21.77;;
70303;SDS011;57712;48.752;11.348;2022-08-19T10:08:21;37.30;;;23.80;;
70303;SDS011;57712;48.752;11.348;2022-08-19T10:10:52;28.77;;;20.40;;
70303;SDS011;57712;48.752;11.348;2022-08-19T10:13:22;26.77;;;18.98;;
70303;SDS011;57712;48.752;11.348;2022-08-19T10:15:55;28.48;;;20.05;;
70303;SDS011;57712;48.752;11.348;2022-08-19T10:18:27;28.85;;;21.08;;
70303;SDS011;57712;48.752;11.348;2022-08-19T10:21:02;28.40;;;21.38;;
70303;SDS011;57712;48.752;11.348;2022-08-19T10:23:37;27.33;;;20.57;;
70303;SDS011;57712;48.752;11.348;2022-08-19T10:26:05;29.63;;;20.90;;
70303;SDS011;57712;48.752;11.348;2022-08-19T10:28:33;28.13;;;21.83;;
70303;SDS011;57712;48.752;11.348;2022-08-19T10:31:05;27.92;;;20.63;;
70303;SDS011;57712;48.752;11.348;2022-08-19T10:33:33;27.48;;;20.35;;
70303;SDS011;57712;48.752;11.348;2022-08-19T10:36:20;28.87;;;19.80;;
70303;SDS011;57712;48.752;11.348;2022-08-19T10:38:50;25.15;;;18.73;;
70303;SDS011;57712;48.752;11.348;2022-08-19T10:41:23;35.17;;;21.63;;
70303;SDS011;57712;48.752;11.348;2022-08-19T10:43:53;34.60;;;21.52;;
70303;SDS011;57712;48.752;11.348;2022-08-19T10:46:22;36.67;;;24.00;;
70303;SDS011;57712;48.752;11.348;2022-08-19T10:48:50;42.50;;;25.00;;
70303;SDS011;57712;48.752;11.348;2022-08-19T10:51:18;36.75;;;24.00;;
70303;SDS011;57712;48.752;11.348;2022-08-19T10:54:13;37.63;;;23.48;;
70303;SDS011;57712;48.752;11.348;2022-08-19T10:56:40;39.95;;;24.50;;
70303;SDS011;57712;48.752;11.348;2022-08-19T10:59:19;38.63;;;24.42;;
70303;SDS011;57712;48.752;11.348;2022-08-19T11:01:52;42.20;;;26.07;;
70303;SDS011;57712;48.752;11.348;2022-08-19T11:04:21;45.47;;;26.17;;
70303;SDS011;57712;48.752;11.348;2022-08-19T11:06:54;37.55;;;24.27;;
70303;SDS011;57712;48.752;11.348;2022-08-19T11:09:22;41.78;;;23.80;;
70303;SDS011;57712;48.752;11.348;2022-08-19T11:11:59;33.22;;;22.33;;
70303;SDS011;57712;48.752;11.348;2022-08-19T11:14:29;32.40;;;21.07;;
70303;SDS011;57712;48.752;11.348;2022-08-19T11:16:59;29.42;;;20.55;;
70303;SDS011;57712;48.752;11.348;2022-08-19T11:19:26;33.63;;;20.70;;
70303;SDS011;57712;48.752;11.348;2022-08-19T11:21:53;38.65;;;23.10;;
70303;SDS011;57712;48.752;11.348;2022-08-19T11:24:25;39.30;;;24.08;;
70303;SDS011;57712;48.752;11.348;2022-08-19T11:26:53;34.13;;;21.73;;
70303;SDS011;57712;48.752;11.348;2022-08-19T11:29:25;33.55;;;21.15;;
70303;SDS011;57712;48.752;11.348;2022-08-19T11:31:51;32.63;;;20.88;;
70303;SDS011;57712;48.752;11.348;2022-08-19T11:34:20;30.98;;;21.30;;
70303;SDS011;57712;48.752;11.348;2022-08-19T11:36:48;29.70;;;21.00;;
70303;SDS011;57712;48.752;11.348;2022-08-19T11:39:18;29.73;;;20.73;;
70303;SDS011;57712;48.752;11.348;2022-08-19T11:41:47;46.33;;;21.50;;
70303;SDS011;57712;48.752;11.348;2022-08-19T11:44:14;39.13;;;22.48;;
70303;SDS011;57712;48.752;11.348;2022-08-19T11:46:41;47.17;;;24.42;;
70303;SDS011;57712;48.752;11.348;2022-08-19T11:49:13;43.15;;;23.67;;
70303;SDS011;57712;48.752;11.348;2022-08-19T11:51:42;40.90;;;23.67;;
70303;SDS011;57712;48.752;11.348;2022-08-19T11:54:12;40.42;;;22.55;;
70303;SDS011;57712;48.752;11.348;2022-08-19T11:56:40;37.22;;;23.30;;
70303;SDS011;57712;48.752;11.348;2022-08-19T11:59:08;36.58;;;22.63;;
70303;SDS011;57712;48.752;11.348;2022-08-19T12:01:39;32.28;;;20.90;;
70303;SDS011;57712;48.752;11.348;2022-08-19T12:04:08;35.10;;;20.97;;
70303;SDS011;57712;48.752;11.348;2022-08-19T12:06:37;33.35;;;19.98;;
70303;SDS011;57712;48.752;11.348;2022-08-19T12:09:06;35.10;;;20.98;;
70303;SDS011;57712;48.752;11.348;2022-08-19T12:11:35;36.85;;;21.13;;
70303;SDS011;57712;48.752;11.348;2022-08-19T12:14:03;38.65;;;22.85;;
70303;SDS011;57712;48.752;11.348;2022-08-19T12:16:30;36.67;;;21.30;;
70303;SDS011;57712;48.752;11.348;2022-08-19T12:18:58;45.05;;;22.48;;
70303;SDS011;57712;48.752;11.348;2022-08-19T12:21:31;43.08;;;22.42;;
70303;SDS011;57712;48.752;11.348;2022-08-19T12:23:59;35.03;;;21.75;;
70303;SDS011;57712;48.752;11.348;2022-08-19T12:26:27;39.08;;;22.08;;
70303;SDS011;57712;48.752;11.348;2022-08-19T12:28:58;35.17;;;20.67;;
70303;SDS011;57712;48.752;11.348;2022-08-19T12:31:26;34.40;;;20.33;;
70303;SDS011;57712;48.752;11.348;2022-08-19T12:33:54;32.92;;;20.23;;
70303;SDS011;57712;48.752;11.348;2022-08-19T12:36:21;35.60;;;20.67;;
70303;SDS011;57712;48.752;11.348;2022-08-19T12:38:49;33.75;;;20.45;;
70303;SDS011;57712;48.752;11.348;2022-08-19T12:41:16;34.60;;;20.93;;
70303;SDS011;57712;48.752;11.348;2022-08-19T12:43:44;34.20;;;21.42;;
70303;SDS011;57712;48.752;11.348;2022-08-19T12:46:11;33.17;;;20.13;;
70303;SDS011;57712;48.752;11.348;2022-08-19T12:48:38;34.58;;;20.05;;
70303;SDS011;57712;48.752;11.348;2022-08-19T12:51:08;34.92;;;20.27;;
70303;SDS011;57712;48.752;11.348;2022-08-19T12:53:36;34.73;;;20.33;;
70303;SDS011;57712;48.752;11.348;2022-08-19T12:56:04;34.58;;;21.05;;
70303;SDS011;57712;48.752;11.348;2022-08-19T12:58:36;33.60;;;20.90;;
70303;SDS011;57712;48.752;11.348;2022-08-19T13:01:10;34.60;;;20.30;;
70303;SDS011;57712;48.752;11.348;2022-08-19T13:03:38;35.17;;;21.10;;
70303;SDS011;57712;48.752;11.348;2022-08-19T13:06:06;38.43;;;22.17;;
70303;SDS011;57712;48.752;11.348;2022-08-19T13:08:33;34.83;;;21.08;;
70303;SDS011;57712;48.752;11.348;2022-08-19T13:11:07;34.50;;;19.55;;
70303;SDS011;57712;48.752;11.348;2022-08-19T13:13:38;31.80;;;19.25;;
70303;SDS011;57712;48.752;11.348;2022-08-19T13:16:09;35.40;;;20.30;;
70303;SDS011;57712;48.752;11.348;2022-08-19T13:18:38;34.70;;;19.50;;
70303;SDS011;57712;48.752;11.348;2022-08-19T13:21:06;35.13;;;21.88;;
70303;SDS011;57712;48.752;11.348;2022-08-19T13:23:35;34.58;;;20.70;;
70303;SDS011;57712;48.752;11.348;2022-08-19T13:26:03;35.22;;;20.77;;
70303;SDS011;57712;48.752;11.348;2022-08-19T13:28:32;38.42;;;22.10;;
70303;SDS011;57712;48.752;11.348;2022-08-19T13:31:18;42.10;;;22.43;;
70303;SDS011;57712;48.752;11.348;2022-08-19T13:34:05;40.63;;;23.38;;
70303;SDS011;57712;48.752;11.348;2022-08-19T13:36:33;45.60;;;24.85;;
70303;SDS011;57712;48.752;11.348;2022-08-19T13:39:00;40.17;;;24.52;;
70303;SDS011;57712;48.752;11.348;2022-08-19T13:41:27;50.08;;;26.30;;
70303;SDS011;57712;48.752;11.348;2022-08-19T13:43:54;49.40;;;25.87;;
70303;SDS011;57712;48.752;11.348;2022-08-19T13:46:20;44.85;;;25.80;;
70303;SDS011;57712;48.752;11.348;2022-08-19T13:48:47;44.67;;;26.05;;
70303;SDS011;57712;48.752;11.348;2022-08-19T13:51:15;46.08;;;25.77;;
70303;SDS011;57712;48.752;11.348;2022-08-19T13:53:43;42.88;;;24.88;;
70303;SDS011;57712;48.752;11.348;2022-08-19T13:56:14;52.93;;;26.13;;
70303;SDS011;57712;48.752;11.348;2022-08-19T13:58:42;45.25;;;25.50;;
70303;SDS011;57712;48.752;11.348;2022-08-19T14:01:09;38.70;;;23.40;;
70303;SDS011;57712;48.752;11.348;2022-08-19T14:03:36;44.50;;;24.58;;
70303;SDS011;57712;48.752;11.348;2022-08-19T14:06:04;41.85;;;24.00;;
70303;SDS011;57712;48.752;11.348;2022-08-19T14:08:30;41.70;;;24.50;;
70303;SDS011;57712;48.752;11.348;2022-08-19T14:10:58;42.53;;;24.35;;
70303;SDS011;57712;48.752;11.348;2022-08-19T14:13:31;41.00;;;24.50;;
70303;SDS011;57712;48.752;11.348;2022-08-19T14:16:00;46.15;;;22.98;;
70303;SDS011;57712;48.752;11.348;2022-08-19T14:18:26;41.67;;;23.85;;
70303;SDS011;57712;48.752;11.348;2022-08-19T14:20:54;40.77;;;23.73;;
70303;SDS011;57712;48.752;11.348;2022-08-19T14:23:22;40.35;;;24.38;;
70303;SDS011;57712;48.752;11.348;2022-08-19T14:25:48;42.83;;;24.45;;
70303;SDS011;57712;48.752;11.348;2022-08-19T14:28:15;53.50;;;24.83;;
70303;SDS011;57712;48.752;11.348;2022-08-19T14:30:42;44.67;;;24.88;;
70303;SDS011;57712;48.752;11.348;2022-08-19T14:33:10;47.83;;;24.37;;
70303;SDS011;57712;48.752;11.348;2022-08-19T14:35:37;42.00;;;23.95;;